createdAt,value
2016-04-12T00:00:30.378Z,42.44
2016-04-12T00:01:30.537Z,42.27
2016-04-12T00:02:30.478Z,42.76
2016-04-12T00:03:30.527Z,42.44
2016-04-12T00:04:30.592Z,42.54
2016-04-12T00:05:30.625Z,42.64
2016-04-12T00:06:30.675Z,42.35
2016-04-12T00:07:30.741Z,42.44
2016-04-12T00:08:30.780Z,42.25
2016-04-12T00:09:30.836Z,42.44
2016-04-12T00:10:30.901Z,42.35
2016-04-12T00:11:30.934Z,42.54
2016-04-12T00:12:30.984Z,42.37
2016-04-12T00:13:31.050Z,42.54
2016-04-12T00:14:31.083Z,42.64
2016-04-12T00:15:31.148Z,42.25
2016-04-12T00:16:31.229Z,42.37
2016-04-12T00:17:31.247Z,42.35
2016-04-12T00:18:31.297Z,42.35
2016-04-12T00:19:31.362Z,42.25
2016-04-12T00:20:31.396Z,42.35
2016-04-12T00:21:31.460Z,42.56
2016-04-12T00:22:31.511Z,42.54
2016-04-12T00:23:31.560Z,42.93
2016-04-12T00:24:31.610Z,42.76
2016-04-12T00:25:31.659Z,42.85
2016-04-12T00:26:31.710Z,42.76
2016-04-12T00:27:31.758Z,42.64
2016-04-12T00:28:31.808Z,42.73
2016-04-12T00:29:31.890Z,42.76
2016-04-12T00:30:31.952Z,42.85
2016-04-12T00:31:31.846Z,42.76
2016-04-12T00:32:32.064Z,42.85
2016-04-12T00:33:32.067Z,42.94
2016-04-12T00:34:32.115Z,42.73
2016-04-12T00:35:32.181Z,42.85
2016-04-12T00:36:32.231Z,43.02
2016-04-12T00:37:32.281Z,42.64
2016-04-12T00:38:32.331Z,42.76
2016-04-12T00:39:32.395Z,43.14
2016-04-12T00:40:32.445Z,42.94
2016-04-12T00:41:32.494Z,42.94
2016-04-12T00:42:32.529Z,43.23
2016-04-12T00:43:32.594Z,43.04
2016-04-12T00:44:32.642Z,43.04
2016-04-12T00:45:32.709Z,42.76
2016-04-12T00:46:32.789Z,42.66
2016-04-12T00:47:32.808Z,43.04
2016-04-12T00:48:32.857Z,42.94
2016-04-12T00:49:32.907Z,42.94
2016-04-12T00:50:32.956Z,43.14
2016-04-12T00:51:33.006Z,43.23
2016-04-12T00:52:33.055Z,43.21
2016-04-12T00:53:33.105Z,43.31
2016-04-12T00:54:33.155Z,43.33
2016-04-12T00:55:33.205Z,43.43
2016-04-12T00:56:33.269Z,42.94
2016-04-12T00:57:33.302Z,43.52
2016-04-12T00:58:33.369Z,43.52
2016-04-12T00:59:33.418Z,43.14
2016-04-12T01:00:33.467Z,43.33
2016-04-12T01:01:33.518Z,43.43
2016-04-12T01:02:33.582Z,43.14
2016-04-12T01:03:33.632Z,43.43
2016-04-12T01:04:33.665Z,42.94
2016-04-12T01:05:33.731Z,43.23
2016-04-12T01:06:33.781Z,43.14
2016-04-12T01:07:33.830Z,43.02
2016-04-12T01:08:33.879Z,43.52
2016-04-12T01:09:33.945Z,43.04
2016-04-12T01:10:33.995Z,43.33
2016-04-12T01:11:34.029Z,43.23
2016-04-12T01:12:33.343Z,43.33
2016-04-12T01:13:34.142Z,43.33
2016-04-12T01:14:34.192Z,43.62
2016-04-12T01:15:34.242Z,43.62
2016-04-12T01:16:34.292Z,43.33
2016-04-12T01:17:34.341Z,43.43
2016-04-12T01:18:34.422Z,43.33
2016-04-12T01:19:34.456Z,43.33
2016-04-12T01:20:34.505Z,43.43
2016-04-12T01:21:34.555Z,43.52
2016-04-12T01:22:34.605Z,43.4
2016-04-12T01:23:34.670Z,43.52
2016-04-12T01:24:34.704Z,43.71
2016-04-12T01:25:34.769Z,43.71
2016-04-12T01:26:34.819Z,43.62
2016-04-12T01:27:34.868Z,43.52
2016-04-12T01:28:34.918Z,43.62
2016-04-12T01:29:34.968Z,43.52
2016-04-12T01:30:35.016Z,43.52
2016-04-12T01:31:35.082Z,43.52
2016-04-12T01:32:35.116Z,43.71
2016-04-12T01:33:35.181Z,43.52
2016-04-12T01:34:35.231Z,44
2016-04-12T01:35:35.280Z,44
2016-04-12T01:36:35.329Z,44
2016-04-12T01:37:35.379Z,44
2016-04-12T01:38:35.429Z,43.91
2016-04-12T01:39:35.494Z,44
2016-04-12T01:40:35.528Z,44
2016-04-12T01:41:35.593Z,44.1
2016-04-12T01:42:35.642Z,43.71
2016-04-12T01:43:35.693Z,43.91
2016-04-12T01:44:35.742Z,44
2016-04-12T01:45:35.807Z,44
2016-04-12T01:46:35.856Z,44
2016-04-12T01:47:35.891Z,44
2016-04-12T01:48:35.956Z,44
2016-04-12T01:49:36.005Z,44.1
2016-04-12T01:50:35.899Z,44.1
2016-04-12T01:51:36.105Z,44.1
2016-04-12T01:52:36.185Z,44.1
2016-04-12T01:53:36.219Z,44.2
2016-04-12T01:54:36.253Z,44.2
2016-04-12T01:55:36.319Z,44.2
2016-04-12T01:56:36.369Z,44.1
2016-04-12T01:57:36.418Z,44.1
2016-04-12T01:58:36.466Z,44.1
2016-04-12T01:59:36.533Z,44.1
2016-04-12T02:00:36.566Z,44.29
2016-04-12T02:01:36.632Z,44.2
2016-04-12T02:02:36.682Z,44.1
2016-04-12T02:03:36.746Z,44.1
2016-04-12T02:04:36.780Z,44.2
2016-04-12T02:05:36.845Z,44.1
2016-04-12T02:06:36.879Z,44.29
2016-04-12T02:07:36.945Z,44.1
2016-04-12T02:08:36.978Z,44.1
2016-04-12T02:09:37.043Z,44.2
2016-04-12T02:10:37.092Z,44.1
2016-04-12T02:11:37.142Z,44.1
2016-04-12T02:12:37.192Z,44.2
2016-04-12T02:13:37.257Z,44.1
2016-04-12T02:14:37.306Z,44.1
2016-04-12T02:15:37.341Z,44.1
2016-04-12T02:16:37.406Z,44.1
2016-04-12T02:17:37.456Z,44
2016-04-12T02:18:37.490Z,44.2
2016-04-12T02:19:37.570Z,44.2
2016-04-12T02:20:37.605Z,44.2
2016-04-12T02:21:37.654Z,44.38
2016-04-12T02:22:37.719Z,44.1
2016-04-12T02:23:37.753Z,44.48
2016-04-12T02:24:37.803Z,44.29
2016-04-12T02:25:37.868Z,44.29
2016-04-12T02:26:37.917Z,44.58
2016-04-12T02:27:37.966Z,44.1
2016-04-12T02:28:38.016Z,44.2
2016-04-12T02:29:38.066Z,44.58
2016-04-12T02:30:38.115Z,44.2
2016-04-12T02:31:38.165Z,44.48
2016-04-12T02:32:38.246Z,44.2
2016-04-12T02:33:38.280Z,44.2
2016-04-12T02:34:38.330Z,44.2
2016-04-12T02:35:38.380Z,44.68
2016-04-12T02:36:38.429Z,44.48
2016-04-12T02:37:38.479Z,44.38
2016-04-12T02:38:38.528Z,44.58
2016-04-12T02:39:38.593Z,44.58
2016-04-12T02:40:38.643Z,44.77
2016-04-12T02:41:38.692Z,44.68
2016-04-12T02:42:38.742Z,44.77
2016-04-12T02:43:38.792Z,44.77
2016-04-12T02:44:38.857Z,44.58
2016-04-12T02:45:38.890Z,44.87
2016-04-12T02:46:38.956Z,44.96
2016-04-12T02:47:39.020Z,44.68
2016-04-12T02:48:39.070Z,44.87
2016-04-12T02:49:39.104Z,44.68
2016-04-12T02:50:39.169Z,44.87
2016-04-12T02:51:39.219Z,44.87
2016-04-12T02:52:39.269Z,44.87
2016-04-12T02:53:39.333Z,44.96
2016-04-12T02:54:39.383Z,44.96
2016-04-12T02:55:39.433Z,44.68
2016-04-12T02:56:39.482Z,45.25
2016-04-12T02:57:39.532Z,45.06
2016-04-12T02:58:39.565Z,45.15
2016-04-12T02:59:39.630Z,45.15
2016-04-12T03:00:39.696Z,44.87
2016-04-12T03:01:39.730Z,45.25
2016-04-12T03:02:39.779Z,45.15
2016-04-12T03:03:39.845Z,44.96
2016-04-12T03:04:39.894Z,45.25
2016-04-12T03:05:39.928Z,45.15
2016-04-12T03:06:39.993Z,44.96
2016-04-12T03:07:40.043Z,45.04
2016-04-12T03:08:40.092Z,45.25
2016-04-12T03:09:40.157Z,45.14
2016-04-12T03:10:40.192Z,45.15
2016-04-12T03:11:40.257Z,45.06
2016-04-12T03:12:40.307Z,45.06
2016-04-12T03:13:40.356Z,45.15
2016-04-12T03:14:40.421Z,45.15
2016-04-12T03:15:40.455Z,45.35
2016-04-12T03:16:40.505Z,45.06
2016-04-12T03:17:40.570Z,44.87
2016-04-12T03:18:40.619Z,44.96
2016-04-12T03:19:40.654Z,45.83
2016-04-12T03:20:40.720Z,45.06
2016-04-12T03:21:40.769Z,45.25
2016-04-12T03:22:40.818Z,45.45
2016-04-12T03:23:40.883Z,45.35
2016-04-12T03:24:40.917Z,45.73
2016-04-12T03:25:40.983Z,45.64
2016-04-12T03:26:41.032Z,45.14
2016-04-12T03:27:41.081Z,45.45
2016-04-12T03:28:41.130Z,45.15
2016-04-12T03:29:41.180Z,45.15
2016-04-12T03:30:41.230Z,45.35
2016-04-12T03:31:41.279Z,45.35
2016-04-12T03:32:41.360Z,45.15
2016-04-12T03:33:41.379Z,45.35
2016-04-12T03:34:41.429Z,45.35
2016-04-12T03:35:41.509Z,45.54
2016-04-12T03:36:41.543Z,45.54
2016-04-12T03:37:41.593Z,45.35
2016-04-12T03:38:41.643Z,45.73
2016-04-12T03:39:41.693Z,45.54
2016-04-12T03:40:41.757Z,45.25
2016-04-12T03:41:41.791Z,45.25
2016-04-12T03:42:41.856Z,45.25
2016-04-12T03:43:41.906Z,45.73
2016-04-12T03:44:41.956Z,45.25
2016-04-12T03:45:42.020Z,45.25
2016-04-12T03:46:42.070Z,45.54
2016-04-12T03:47:42.119Z,45.35
2016-04-12T03:48:42.153Z,45.35
2016-04-12T03:49:42.219Z,45.35
2016-04-12T03:50:42.267Z,45.35
2016-04-12T03:51:42.333Z,45.25
2016-04-12T03:52:42.367Z,45.25
2016-04-12T03:53:42.417Z,45.64
2016-04-12T03:54:42.483Z,45.23
2016-04-12T03:55:42.531Z,45.64
2016-04-12T03:56:42.581Z,45.35
2016-04-12T03:57:42.490Z,45.45
2016-04-12T03:58:42.540Z,45.45
2016-04-12T03:59:42.730Z,45.45
2016-04-12T04:00:42.780Z,45.45
2016-04-12T04:01:42.829Z,45.45
2016-04-12T04:02:42.894Z,45.35
2016-04-12T04:03:42.944Z,45.92
2016-04-12T04:04:42.994Z,45.35
2016-04-12T04:05:43.043Z,45.35
2016-04-12T04:06:43.107Z,45.45
2016-04-12T04:07:43.157Z,45.42
2016-04-12T04:08:43.208Z,45.45
2016-04-12T04:09:43.273Z,45.25
2016-04-12T04:10:42.557Z,45.83
2016-04-12T04:11:43.356Z,45.35
2016-04-12T04:12:43.406Z,45.15
2016-04-12T04:13:43.455Z,45.15
2016-04-12T04:14:43.520Z,45.64
2016-04-12T04:15:43.554Z,45.32
2016-04-12T04:16:43.603Z,45.32
2016-04-12T04:17:43.670Z,45.45
2016-04-12T04:18:43.703Z,45.35
2016-04-12T04:19:43.784Z,45.25
2016-04-12T04:20:43.817Z,45.25
2016-04-12T04:21:43.867Z,45.23
2016-04-12T04:22:43.917Z,45.32
2016-04-12T04:23:43.981Z,45.42
2016-04-12T04:24:44.016Z,45.32
2016-04-12T04:25:44.066Z,45.52
2016-04-12T04:26:44.131Z,45.61
2016-04-12T04:27:44.180Z,45.71
2016-04-12T04:28:44.245Z,46.09
2016-04-12T04:29:44.280Z,45.81
2016-04-12T04:30:44.329Z,46.38
2016-04-12T04:31:44.394Z,46.02
2016-04-12T04:32:44.444Z,45.71
2016-04-12T04:33:44.493Z,45.61
2016-04-12T04:34:44.543Z,45.54
2016-04-12T04:35:44.592Z,45.83
2016-04-12T04:36:44.658Z,45.92
2016-04-12T04:37:44.707Z,46.48
2016-04-12T04:38:44.757Z,46.09
2016-04-12T04:39:44.807Z,45.52
2016-04-12T04:40:44.856Z,45.92
2016-04-12T04:41:44.905Z,46.41
2016-04-12T04:42:44.940Z,46.48
2016-04-12T04:43:45.004Z,46.31
2016-04-12T04:44:45.070Z,46.09
2016-04-12T04:45:45.120Z,46.48
2016-04-12T04:46:44.997Z,46.21
2016-04-12T04:47:45.218Z,46.28
2016-04-12T04:48:45.268Z,45.9
2016-04-12T04:49:45.302Z,46.31
2016-04-12T04:50:45.367Z,46.21
2016-04-12T04:51:45.432Z,46.02
2016-04-12T04:52:45.466Z,46.12
2016-04-12T04:53:45.532Z,46
2016-04-12T04:54:45.565Z,46.31
2016-04-12T04:55:45.647Z,46.21
2016-04-12T04:56:45.680Z,46.19
2016-04-12T04:57:45.729Z,46
2016-04-12T04:58:45.795Z,46.02
2016-04-12T04:59:45.844Z,46.21
2016-04-12T05:00:45.878Z,46.12
2016-04-12T05:01:45.944Z,46.5
2016-04-12T05:02:45.993Z,46
2016-04-12T05:03:45.277Z,46.09
2016-04-12T05:04:46.092Z,46.02
2016-04-12T05:05:46.142Z,45.9
2016-04-12T05:06:46.207Z,46.09
2016-04-12T05:07:46.257Z,46.02
2016-04-12T05:08:46.291Z,46
2016-04-12T05:09:46.356Z,46
2016-04-12T05:10:46.415Z,45.9
2016-04-12T05:11:46.448Z,45.71
2016-04-12T05:12:46.499Z,46.09
2016-04-12T05:13:46.564Z,46.28
2016-04-12T05:14:46.613Z,45.71
2016-04-12T05:15:46.648Z,46.31
2016-04-12T05:16:46.712Z,46
2016-04-12T05:17:46.622Z,46.38
2016-04-12T05:18:46.827Z,46.02
2016-04-12T05:19:46.861Z,45.9
2016-04-12T05:20:46.926Z,46.28
2016-04-12T05:21:46.975Z,45.92
2016-04-12T05:22:47.010Z,46.09
2016-04-12T05:23:47.075Z,45.9
2016-04-12T05:24:47.125Z,46.02
2016-04-12T05:25:47.175Z,45.9
2016-04-12T05:26:47.224Z,45.9
2016-04-12T05:27:47.289Z,46.28
2016-04-12T05:28:47.338Z,45.71
2016-04-12T05:29:47.372Z,46.48
2016-04-12T05:30:47.438Z,46.19
2016-04-12T05:31:47.487Z,45.9
2016-04-12T05:32:47.537Z,46
2016-04-12T05:33:47.585Z,46.09
2016-04-12T05:34:47.636Z,46.21
2016-04-12T05:35:47.701Z,46.98
2016-04-12T05:36:47.750Z,46.19
2016-04-12T05:37:47.801Z,46.48
2016-04-12T05:38:47.849Z,46.77
2016-04-12T05:39:47.915Z,46.28
2016-04-12T05:40:47.949Z,46.38
2016-04-12T05:41:48.014Z,45.81
2016-04-12T05:42:48.064Z,46.19
2016-04-12T05:43:48.097Z,46
2016-04-12T05:44:48.163Z,46.19
2016-04-12T05:45:48.212Z,46.28
2016-04-12T05:46:48.262Z,46.19
2016-04-12T05:47:48.483Z,46.31
2016-04-12T05:48:48.361Z,45.9
2016-04-12T05:49:48.426Z,46.38
2016-04-12T05:50:48.460Z,46.58
2016-04-12T05:51:48.509Z,46.96
2016-04-12T05:52:48.575Z,46.67
2016-04-12T05:53:48.625Z,46.28
2016-04-12T05:54:48.674Z,46.19
2016-04-12T05:55:48.724Z,45.9
2016-04-12T05:56:48.773Z,45.9
2016-04-12T05:57:48.838Z,46.67
2016-04-12T05:58:48.888Z,46
2016-04-12T05:59:48.938Z,46.48
2016-04-12T06:00:48.987Z,47.08
2016-04-12T06:01:49.052Z,46.21
2016-04-12T06:02:49.086Z,46.58
2016-04-12T06:03:49.136Z,46.58
2016-04-12T06:04:49.201Z,46.58
2016-04-12T06:05:49.234Z,46.96
2016-04-12T06:06:49.285Z,46.38
2016-04-12T06:07:49.349Z,46.41
2016-04-12T06:08:49.399Z,46.38
2016-04-12T06:09:49.480Z,46.28
2016-04-12T06:10:49.514Z,46.41
2016-04-12T06:11:49.548Z,46.38
2016-04-12T06:12:49.612Z,46.28
2016-04-12T06:13:49.662Z,46.38
2016-04-12T06:14:49.696Z,46.67
2016-04-12T06:15:49.778Z,47.05
2016-04-12T06:16:49.811Z,46
2016-04-12T06:17:49.939Z,45.23
2016-04-12T06:18:49.926Z,44.37
2016-04-12T06:19:49.975Z,43.5
2016-04-12T06:20:50.009Z,43.5
2016-04-12T06:21:50.075Z,42.25
2016-04-12T06:22:50.125Z,41.17
2016-04-12T06:23:50.174Z,41.29
2016-04-12T06:24:50.223Z,41.29
2016-04-12T06:25:50.273Z,41.29
2016-04-12T06:26:50.322Z,41.2
2016-04-12T06:27:50.371Z,40.91
2016-04-12T06:28:50.438Z,41.29
2016-04-12T06:29:50.502Z,41
2016-04-12T06:30:50.536Z,41
2016-04-12T06:31:50.602Z,41.1
2016-04-12T06:32:50.698Z,41
2016-04-12T06:33:50.685Z,40.91
2016-04-12T06:34:50.750Z,40.52
2016-04-12T06:35:50.800Z,40.52
2016-04-12T06:36:50.849Z,40.33
2016-04-12T06:37:50.899Z,40.33
2016-04-12T06:38:50.949Z,40.43
2016-04-12T06:39:51.014Z,40.43
2016-04-12T06:40:51.048Z,40.43
2016-04-12T06:41:51.097Z,40.43
2016-04-12T06:42:51.162Z,40.33
2016-04-12T06:43:51.212Z,40.43
2016-04-12T06:44:51.246Z,40.52
2016-04-12T06:45:51.326Z,40.52
2016-04-12T06:46:51.376Z,40.62
2016-04-12T06:47:51.410Z,40.72
2016-04-12T06:48:51.475Z,40.72
2016-04-12T06:49:51.509Z,40.52
2016-04-12T06:50:51.575Z,40.81
2016-04-12T06:51:51.625Z,40.72
2016-04-12T06:52:51.658Z,40.52
2016-04-12T06:53:51.723Z,40.43
2016-04-12T06:54:51.773Z,40.52
2016-04-12T06:55:51.823Z,40.33
2016-04-12T06:56:51.872Z,40.52
2016-04-12T06:57:51.922Z,40.81
2016-04-12T06:58:51.971Z,40.52
2016-04-12T06:59:52.021Z,40.43
2016-04-12T07:00:52.085Z,40.81
2016-04-12T07:01:52.135Z,40.72
2016-04-12T07:02:52.247Z,40.62
2016-04-12T07:03:52.063Z,40.52
2016-04-12T07:04:52.284Z,40.52
2016-04-12T07:05:52.333Z,40.41
2016-04-12T07:06:52.383Z,40.33
2016-04-12T07:07:51.682Z,40.23
2016-04-12T07:08:52.498Z,40.23
2016-04-12T07:09:52.532Z,40.33
2016-04-12T07:10:52.581Z,40.14
2016-04-12T07:11:52.662Z,40.43
2016-04-12T07:12:52.696Z,40.62
2016-04-12T07:13:52.746Z,40.14
2016-04-12T07:14:52.795Z,40.22
2016-04-12T07:15:52.845Z,40.23
2016-04-12T07:16:52.910Z,40.43
2016-04-12T07:17:52.975Z,40.62
2016-04-12T07:18:52.993Z,40.43
2016-04-12T07:19:53.059Z,40.52
2016-04-12T07:20:53.109Z,40.72
2016-04-12T07:21:53.142Z,40.72
2016-04-12T07:22:53.208Z,40.52
2016-04-12T07:23:53.256Z,40.72
2016-04-12T07:24:53.306Z,40.72
2016-04-12T07:25:53.372Z,40.72
2016-04-12T07:26:53.406Z,40.81
2016-04-12T07:27:53.471Z,40.81
2016-04-12T07:28:53.520Z,40.72
2016-04-12T07:29:53.555Z,40.72
2016-04-12T07:30:53.635Z,40.52
2016-04-12T07:31:53.669Z,40.81
2016-04-12T07:32:53.719Z,40.52
2016-04-12T07:33:53.769Z,40.72
2016-04-12T07:34:53.833Z,40.52
2016-04-12T07:35:53.867Z,40.52
2016-04-12T07:36:53.933Z,40.43
2016-04-12T07:37:53.982Z,40.52
2016-04-12T07:38:54.032Z,40.33
2016-04-12T07:39:54.082Z,40.81
2016-04-12T07:40:54.131Z,40.72
2016-04-12T07:41:54.199Z,40.62
2016-04-12T07:42:54.297Z,40.62
2016-04-12T07:43:54.379Z,40.62
2016-04-12T07:44:54.492Z,40.62
2016-04-12T07:45:54.591Z,40.43
2016-04-12T07:46:54.670Z,40.43
2016-04-12T07:47:54.752Z,40.33
2016-04-12T07:48:54.818Z,40.52
2016-04-12T07:49:54.886Z,40.62
2016-04-12T07:50:54.953Z,40.62
2016-04-12T07:51:55.034Z,40.52
2016-04-12T07:52:55.090Z,40.91
2016-04-12T07:53:55.145Z,40.52
2016-04-12T07:54:55.201Z,40.43
2016-04-12T07:55:55.241Z,41.08
2016-04-12T07:56:55.328Z,40.99
2016-04-12T07:57:55.365Z,40.89
2016-04-12T07:58:55.417Z,40.5
2016-04-12T07:59:55.484Z,40.5
2016-04-12T08:00:55.535Z,41.08
2016-04-12T08:01:55.571Z,40.41
2016-04-12T08:02:55.638Z,40.5
2016-04-12T08:03:55.689Z,40.99
2016-04-12T08:04:55.738Z,40.89
2016-04-12T08:05:55.804Z,41.25
2016-04-12T08:06:55.855Z,41.85
2016-04-12T08:07:55.889Z,41.46
2016-04-12T08:08:55.944Z,41.17
2016-04-12T08:09:56.008Z,41.46
2016-04-12T08:10:56.044Z,41.37
2016-04-12T08:11:56.109Z,41.17
2016-04-12T08:12:56.158Z,41.17
2016-04-12T08:13:56.197Z,41.46
2016-04-12T08:14:56.247Z,40.89
2016-04-12T08:15:56.312Z,40.79
2016-04-12T08:16:56.362Z,40.99
2016-04-12T08:17:56.427Z,40.99
2016-04-12T08:18:56.444Z,40.89
2016-04-12T08:19:56.495Z,40.99
2016-04-12T08:20:56.560Z,41.08
2016-04-12T08:21:56.610Z,41.27
2016-04-12T08:22:56.659Z,41.08
2016-04-12T08:23:56.725Z,41.17
2016-04-12T08:24:56.774Z,41.37
2016-04-12T08:25:56.807Z,41.46
2016-04-12T08:26:56.873Z,41.46
2016-04-12T08:27:56.923Z,41.08
2016-04-12T08:28:56.957Z,41.94
2016-04-12T08:29:57.022Z,42.43
2016-04-12T08:30:57.071Z,42.23
2016-04-12T08:31:57.121Z,42.81
2016-04-12T08:32:57.170Z,43
2016-04-12T08:33:57.220Z,43.1
2016-04-12T08:34:57.285Z,43.67
2016-04-12T08:35:57.335Z,43.19
2016-04-12T08:36:57.368Z,42.33
2016-04-12T08:37:57.434Z,42.23
2016-04-12T08:38:57.484Z,42.61
2016-04-12T08:39:57.534Z,41.75
2016-04-12T08:40:57.583Z,42.33
2016-04-12T08:41:57.632Z,42.23
2016-04-12T08:42:57.682Z,41.94
2016-04-12T08:43:57.747Z,42.13
2016-04-12T08:44:57.781Z,42.23
2016-04-12T08:45:57.847Z,42.61
2016-04-12T08:46:57.895Z,42.43
2016-04-12T08:47:57.930Z,42.33
2016-04-12T08:48:57.995Z,42.81
2016-04-12T08:49:58.060Z,42.13
2016-04-12T08:50:58.078Z,42.13
2016-04-12T08:51:58.144Z,42.23
2016-04-12T08:52:58.208Z,42.13
2016-04-12T08:53:58.258Z,42.43
2016-04-12T08:54:58.292Z,41.85
2016-04-12T08:55:58.358Z,41.94
2016-04-12T08:56:58.391Z,42.43
2016-04-12T08:57:58.316Z,41.75
2016-04-12T08:58:58.507Z,41.66
2016-04-12T08:59:58.555Z,41.56
2016-04-12T09:00:58.621Z,41.66
2016-04-12T09:01:58.655Z,41.56
2016-04-12T09:02:58.720Z,41.49
2016-04-12T09:03:58.770Z,41.49
2016-04-12T09:04:58.803Z,41.58
2016-04-12T09:05:58.853Z,41.77
2016-04-12T09:06:58.965Z,41.67
2016-04-12T09:07:58.968Z,41.67
2016-04-12T09:08:59.006Z,41.67
2016-04-12T09:09:59.056Z,41.39
2016-04-12T09:10:59.106Z,41.39
2016-04-12T09:11:59.171Z,41.58
2016-04-12T09:12:59.205Z,41.49
2016-04-12T09:13:59.255Z,41.87
2016-04-12T09:14:59.335Z,41.77
2016-04-12T09:15:59.369Z,41.77
2016-04-12T09:16:59.419Z,41.67
2016-04-12T09:17:59.500Z,41.58
2016-04-12T09:18:59.518Z,41.39
2016-04-12T09:19:59.567Z,41.29
2016-04-12T09:20:59.632Z,41.39
2016-04-12T09:21:59.666Z,41.1
2016-04-12T09:22:59.763Z,41.2
2016-04-12T09:23:59.797Z,41.29
2016-04-12T09:24:59.830Z,41.1
2016-04-12T09:25:59.896Z,40.91
2016-04-12T09:26:59.946Z,40.91
2016-04-12T09:27:59.979Z,40.81
2016-04-12T09:29:00.029Z,40.72
2016-04-12T09:30:00.094Z,40.91
2016-04-12T09:31:00.129Z,40.91
2016-04-12T09:32:00.178Z,41.29
2016-04-12T09:33:00.243Z,41.29
2016-04-12T09:34:00.293Z,41.49
2016-04-12T09:35:00.358Z,41.77
2016-04-12T09:36:00.392Z,41.77
2016-04-12T09:37:00.457Z,41.58
2016-04-12T09:38:00.506Z,41.77
2016-04-12T09:39:00.556Z,41.58
2016-04-12T09:40:00.606Z,42.25
2016-04-12T09:41:00.656Z,41.5
2016-04-12T09:42:00.689Z,41.22
2016-04-12T09:43:00.754Z,41.22
2016-04-12T09:44:00.803Z,40.91
2016-04-12T09:45:00.853Z,40.55
2016-04-12T09:46:00.919Z,40.55
2016-04-12T09:47:00.984Z,41
2016-04-12T09:48:01.017Z,40.73
2016-04-12T09:49:01.083Z,41.22
2016-04-12T09:50:01.117Z,41.02
2016-04-12T09:51:01.166Z,40.73
2016-04-12T09:52:01.262Z,40.73
2016-04-12T09:53:01.265Z,41.02
2016-04-12T09:54:01.331Z,41.02
2016-04-12T09:55:01.380Z,41.02
2016-04-12T09:56:01.414Z,40.73
2016-04-12T09:57:01.495Z,41.12
2016-04-12T09:58:01.529Z,41.02
2016-04-12T09:59:01.579Z,41.02
2016-04-12T10:00:01.629Z,41.02
2016-04-12T10:01:01.694Z,41.22
2016-04-12T10:02:01.743Z,41.31
2016-04-12T10:03:01.776Z,41.22
2016-04-12T10:04:01.826Z,41.41
2016-04-12T10:05:01.892Z,41.6
2016-04-12T10:06:01.940Z,41.6
2016-04-12T10:07:01.991Z,41.99
2016-04-12T10:08:02.040Z,42.27
2016-04-12T10:09:02.090Z,42.27
2016-04-12T10:10:02.139Z,42.27
2016-04-12T10:11:02.204Z,42.18
2016-04-12T10:12:02.270Z,42.08
2016-04-12T10:13:02.303Z,42.37
2016-04-12T10:14:02.353Z,42.18
2016-04-12T10:15:02.449Z,42.27
2016-04-12T10:16:02.453Z,42.27
2016-04-12T10:17:02.517Z,42.27
2016-04-12T10:18:02.567Z,42.37
2016-04-12T10:19:02.616Z,42.27
2016-04-12T10:20:02.666Z,42.76
2016-04-12T10:21:02.716Z,42.37
2016-04-12T10:22:02.781Z,42.37
2016-04-12T10:23:02.816Z,42.37
2016-04-12T10:24:02.864Z,42.47
2016-04-12T10:25:02.929Z,42.56
2016-04-12T10:26:02.963Z,42.37
2016-04-12T10:27:03.044Z,42.47
2016-04-12T10:28:03.079Z,42.37
2016-04-12T10:29:03.127Z,42.37
2016-04-12T10:30:03.177Z,42.18
2016-04-12T10:31:03.243Z,42.18
2016-04-12T10:32:03.276Z,42.37
2016-04-12T10:33:03.342Z,42.76
2016-04-12T10:34:03.391Z,42.47
2016-04-12T10:35:03.440Z,42.37
2016-04-12T10:36:03.757Z,42.37
2016-04-12T10:37:03.556Z,42.56
2016-04-12T10:38:03.590Z,42.66
2016-04-12T10:39:03.654Z,42.37
2016-04-12T10:40:03.704Z,42.76
2016-04-12T10:41:03.753Z,42.37
2016-04-12T10:42:03.803Z,42.94
2016-04-12T10:43:03.870Z,42.66
2016-04-12T10:44:03.918Z,42.76
2016-04-12T10:45:03.953Z,42.85
2016-04-12T10:46:04.017Z,42.85
2016-04-12T10:47:05.176Z,42.85
2016-04-12T10:48:04.117Z,42.85
2016-04-12T10:49:04.198Z,42.76
2016-04-12T10:50:04.231Z,42.85
2016-04-12T10:51:04.265Z,42.76
2016-04-12T10:52:04.331Z,42.85
2016-04-12T10:53:04.364Z,42.76
2016-04-12T10:54:04.430Z,42.76
2016-04-12T10:55:04.480Z,42.76
2016-04-12T10:56:04.513Z,42.76
2016-04-12T10:57:04.578Z,42.85
2016-04-12T10:58:04.643Z,42.56
2016-04-12T10:59:04.677Z,42.94
2016-04-12T11:00:04.727Z,42.76
2016-04-12T11:01:04.792Z,42.85
2016-04-12T11:02:04.841Z,42.66
2016-04-12T11:03:04.891Z,43.04
2016-04-12T11:04:04.956Z,43.14
2016-04-12T11:05:05.006Z,43.04
2016-04-12T11:06:05.056Z,43.14
2016-04-12T11:07:05.089Z,42.94
2016-04-12T11:08:05.139Z,43.14
2016-04-12T11:09:05.205Z,43.14
2016-04-12T11:10:05.254Z,43.33
2016-04-12T11:11:05.303Z,43.43
2016-04-12T11:12:05.368Z,43.23
2016-04-12T11:13:05.417Z,43.23
2016-04-12T11:14:05.453Z,43.33
2016-04-12T11:15:05.517Z,43.33
2016-04-12T11:16:05.583Z,43.33
2016-04-12T11:17:05.616Z,43.23
2016-04-12T11:18:05.666Z,43.52
2016-04-12T11:19:05.716Z,43.52
2016-04-12T11:20:05.780Z,43.33
2016-04-12T11:21:05.830Z,43.43
2016-04-12T11:22:05.880Z,43.33
2016-04-12T11:23:05.930Z,43.52
2016-04-12T11:24:05.980Z,43.52
2016-04-12T11:25:06.028Z,43.43
2016-04-12T11:26:06.094Z,43.52
2016-04-12T11:27:06.143Z,43.04
2016-04-12T11:28:06.193Z,43.33
2016-04-12T11:29:06.243Z,43.43
2016-04-12T11:30:06.308Z,43.52
2016-04-12T11:31:06.342Z,43.33
2016-04-12T11:32:06.390Z,43.23
2016-04-12T11:33:06.457Z,43.52
2016-04-12T11:34:06.382Z,43.71
2016-04-12T11:35:06.555Z,43.71
2016-04-12T11:36:06.605Z,43.71
2016-04-12T11:37:06.670Z,43.62
2016-04-12T11:38:06.704Z,43.71
2016-04-12T11:39:06.769Z,43.81
2016-04-12T11:40:06.818Z,43.81
2016-04-12T11:41:06.853Z,44
2016-04-12T11:42:06.917Z,43.81
2016-04-12T11:43:06.967Z,44.1
2016-04-12T11:44:07.034Z,44
2016-04-12T11:45:07.082Z,43.91
2016-04-12T11:46:07.116Z,44.1
2016-04-12T11:47:07.181Z,44.2
2016-04-12T11:48:07.231Z,44.29
2016-04-12T11:49:07.140Z,44.1
2016-04-12T11:50:07.330Z,44.2
2016-04-12T11:51:08.395Z,44.2
2016-04-12T11:52:07.429Z,42.85
2016-04-12T11:53:07.478Z,42.66
2016-04-12T11:54:07.544Z,40.55
2016-04-12T11:55:07.578Z,37.76
2016-04-12T11:56:07.643Z,37.85
2016-04-12T11:57:07.693Z,37.08
2016-04-12T11:58:07.742Z,36.51
2016-04-12T11:59:07.808Z,35.55
2016-04-12T12:00:07.842Z,35.74
2016-04-12T12:01:07.891Z,35.64
2016-04-12T12:02:07.972Z,35.55
2016-04-12T12:03:08.005Z,34.88
2016-04-12T12:04:08.071Z,34.59
2016-04-12T12:05:08.105Z,34.2
2016-04-12T12:06:08.154Z,34.49
2016-04-12T12:07:08.204Z,34.3
2016-04-12T12:08:08.269Z,34.49
2016-04-12T12:09:08.303Z,34.49
2016-04-12T12:10:08.368Z,34.78
2016-04-12T12:11:08.417Z,34.78
2016-04-12T12:12:08.483Z,34.97
2016-04-12T12:13:08.518Z,34.88
2016-04-12T12:14:08.567Z,34.78
2016-04-12T12:15:08.616Z,35.16
2016-04-12T12:16:08.681Z,35.74
2016-04-12T12:17:08.731Z,35.55
2016-04-12T12:18:08.781Z,35.45
2016-04-12T12:19:08.878Z,35.45
2016-04-12T12:20:08.880Z,35.64
2016-04-12T12:21:08.945Z,34.3
2016-04-12T12:22:08.979Z,31.8
2016-04-12T12:23:09.028Z,32.38
2016-04-12T12:24:09.094Z,32.09
2016-04-12T12:25:09.159Z,32.65
2016-04-12T12:26:09.192Z,32.17
2016-04-12T12:27:09.258Z,32.46
2016-04-12T12:28:09.308Z,32.26
2016-04-12T12:29:09.341Z,32.07
2016-04-12T12:30:09.407Z,30.92
2016-04-12T12:31:09.456Z,31.79
2016-04-12T12:32:09.505Z,32.07
2016-04-12T12:33:09.555Z,32.07
2016-04-12T12:34:09.668Z,32.07
2016-04-12T12:35:09.670Z,30.92
2016-04-12T12:36:09.719Z,31.32
2016-04-12T12:37:09.754Z,31.3
2016-04-12T12:38:09.819Z,31.21
2016-04-12T12:39:09.868Z,31.21
2016-04-12T12:40:09.918Z,31.11
2016-04-12T12:41:09.967Z,31.61
2016-04-12T12:42:10.032Z,31.4
2016-04-12T12:43:10.067Z,31.8
2016-04-12T12:44:10.116Z,31.8
2016-04-12T12:45:10.166Z,31.9
2016-04-12T12:46:10.215Z,31.9
2016-04-12T12:47:10.280Z,32.28
2016-04-12T12:48:10.314Z,32.38
2016-04-12T12:49:10.379Z,32.76
2016-04-12T12:50:10.428Z,32.76
2016-04-12T12:51:10.479Z,32.09
2016-04-12T12:52:10.528Z,33.24
2016-04-12T12:53:10.593Z,33.34
2016-04-12T12:54:10.627Z,32.86
2016-04-12T12:55:10.677Z,33.44
2016-04-12T12:56:10.742Z,33.53
2016-04-12T12:57:10.791Z,33.82
2016-04-12T12:58:10.841Z,33.82
2016-04-12T12:59:10.891Z,33.82